sensor_id;sensor_type;location;lat;lon;timestamp;P1;durP1;ratioP1;P2;durP2;ratioP2
22388;SDS011;11362;48.102;11.620;2022-12-29T00:00:34;5.77;;;1.30;;
22388;SDS011;11362;48.102;11.620;2022-12-29T00:02:59;8.63;;;1.57;;
22388;SDS011;11362;48.102;11.620;2022-12-29T00:05:24;1.47;;;1.00;;
22388;SDS011;11362;48.102;11.620;2022-12-29T00:07:50;5.13;;;1.33;;
22388;SDS011;11362;48.102;11.620;2022-12-29T00:10:15;6.03;;;1.30;;
22388;SDS011;11362;48.102;11.620;2022-12-29T00:12:40;2.13;;;1.00;;
22388;SDS011;11362;48.102;11.620;2022-12-29T00:15:06;3.63;;;1.43;;
22388;SDS011;11362;48.102;11.620;2022-12-29T00:17:31;2.47;;;0.97;;
22388;SDS011;11362;48.102;11.620;2022-12-29T00:19:57;2.00;;;1.17;;
22388;SDS011;11362;48.102;11.620;2022-12-29T00:22:22;1.87;;;1.00;;
22388;SDS011;11362;48.102;11.620;2022-12-29T00:24:47;2.13;;;1.10;;
22388;SDS011;11362;48.102;11.620;2022-12-29T00:27:13;2.93;;;1.13;;
22388;SDS011;11362;48.102;11.620;2022-12-29T00:29:38;1.83;;;1.10;;
22388;SDS011;11362;48.102;11.620;2022-12-29T00:32:04;1.30;;;1.20;;
22388;SDS011;11362;48.102;11.620;2022-12-29T00:34:29;0.80;;;0.80;;
22388;SDS011;11362;48.102;11.620;2022-12-29T00:36:54;0.93;;;0.90;;
22388;SDS011;11362;48.102;11.620;2022-12-29T00:39:20;4.13;;;1.00;;
22388;SDS011;11362;48.102;11.620;2022-12-29T00:41:46;1.03;;;0.93;;
22388;SDS011;11362;48.102;11.620;2022-12-29T00:44:12;2.17;;;0.93;;
22388;SDS011;11362;48.102;11.620;2022-12-29T00:46:41;1.30;;;1.00;;
22388;SDS011;11362;48.102;11.620;2022-12-29T00:49:08;5.20;;;1.10;;
22388;SDS011;11362;48.102;11.620;2022-12-29T00:51:35;3.93;;;2.00;;
22388;SDS011;11362;48.102;11.620;2022-12-29T00:54:00;1.20;;;1.00;;
22388;SDS011;11362;48.102;11.620;2022-12-29T00:56:26;1.77;;;0.70;;
22388;SDS011;11362;48.102;11.620;2022-12-29T00:58:51;1.73;;;1.00;;
22388;SDS011;11362;48.102;11.620;2022-12-29T01:01:16;1.03;;;0.83;;
22388;SDS011;11362;48.102;11.620;2022-12-29T01:03:42;1.00;;;0.90;;
22388;SDS011;11362;48.102;11.620;2022-12-29T01:06:08;1.23;;;0.80;;
22388;SDS011;11362;48.102;11.620;2022-12-29T01:08:35;2.90;;;1.03;;
22388;SDS011;11362;48.102;11.620;2022-12-29T01:11:02;1.63;;;0.90;;
22388;SDS011;11362;48.102;11.620;2022-12-29T01:13:30;1.43;;;0.90;;
22388;SDS011;11362;48.102;11.620;2022-12-29T01:15:55;1.70;;;0.60;;
22388;SDS011;11362;48.102;11.620;2022-12-29T01:18:20;2.97;;;1.60;;
22388;SDS011;11362;48.102;11.620;2022-12-29T01:20:47;1.87;;;0.80;;
22388;SDS011;11362;48.102;11.620;2022-12-29T01:23:13;1.50;;;0.83;;
22388;SDS011;11362;48.102;11.620;2022-12-29T01:25:38;1.23;;;1.13;;
22388;SDS011;11362;48.102;11.620;2022-12-29T01:28:03;0.73;;;0.60;;
22388;SDS011;11362;48.102;11.620;2022-12-29T01:30:29;0.60;;;0.60;;
22388;SDS011;11362;48.102;11.620;2022-12-29T01:32:55;1.33;;;0.97;;
22388;SDS011;11362;48.102;11.620;2022-12-29T01:35:20;2.17;;;0.83;;
22388;SDS011;11362;48.102;11.620;2022-12-29T01:37:45;0.80;;;0.80;;
22388;SDS011;11362;48.102;11.620;2022-12-29T01:40:11;0.87;;;0.87;;
22388;SDS011;11362;48.102;11.620;2022-12-29T01:42:36;1.60;;;0.93;;
22388;SDS011;11362;48.102;11.620;2022-12-29T01:45:03;0.73;;;0.73;;
22388;SDS011;11362;48.102;11.620;2022-12-29T01:47:35;2.30;;;0.80;;
22388;SDS011;11362;48.102;11.620;2022-12-29T01:50:06;0.83;;;0.83;;
22388;SDS011;11362;48.102;11.620;2022-12-29T01:52:35;0.97;;;0.80;;
22388;SDS011;11362;48.102;11.620;2022-12-29T01:55:06;1.43;;;0.80;;
22388;SDS011;11362;48.102;11.620;2022-12-29T01:57:33;0.63;;;0.60;;
22388;SDS011;11362;48.102;11.620;2022-12-29T02:00:05;2.63;;;0.90;;
22388;SDS011;11362;48.102;11.620;2022-12-29T02:02:35;2.67;;;0.70;;
22388;SDS011;11362;48.102;11.620;2022-12-29T02:05:03;0.77;;;0.70;;
22388;SDS011;11362;48.102;11.620;2022-12-29T02:07:32;0.90;;;0.90;;
22388;SDS011;11362;48.102;11.620;2022-12-29T02:09:58;0.93;;;0.83;;
22388;SDS011;11362;48.102;11.620;2022-12-29T02:12:25;0.70;;;0.70;;
22388;SDS011;11362;48.102;11.620;2022-12-29T02:14:51;0.60;;;0.60;;
22388;SDS011;11362;48.102;11.620;2022-12-29T02:17:30;0.77;;;0.77;;
22388;SDS011;11362;48.102;11.620;2022-12-29T02:20:42;0.70;;;0.70;;
22388;SDS011;11362;48.102;11.620;2022-12-29T02:32:37;0.80;;;0.80;;
22388;SDS011;11362;48.102;11.620;2022-12-29T02:35:30;0.83;;;0.60;;
22388;SDS011;11362;48.102;11.620;2022-12-29T02:40:28;0.40;;;0.40;;
22388;SDS011;11362;48.102;11.620;2022-12-29T02:48:52;0.97;;;0.70;;
22388;SDS011;11362;48.102;11.620;2022-12-29T02:52:09;0.60;;;0.60;;
22388;SDS011;11362;48.102;11.620;2022-12-29T02:54:41;0.60;;;0.60;;
22388;SDS011;11362;48.102;11.620;2022-12-29T03:05:36;0.57;;;0.57;;
22388;SDS011;11362;48.102;11.620;2022-12-29T03:10:59;0.60;;;0.60;;
22388;SDS011;11362;48.102;11.620;2022-12-29T03:16:07;0.70;;;0.70;;
22388;SDS011;11362;48.102;11.620;2022-12-29T03:18:51;0.87;;;0.83;;
22388;SDS011;11362;48.102;11.620;2022-12-29T03:21:36;2.03;;;0.70;;
22388;SDS011;11362;48.102;11.620;2022-12-29T03:24:04;0.70;;;0.70;;
22388;SDS011;11362;48.102;11.620;2022-12-29T03:26:30;0.50;;;0.50;;
22388;SDS011;11362;48.102;11.620;2022-12-29T03:28:56;0.80;;;0.80;;
22388;SDS011;11362;48.102;11.620;2022-12-29T03:31:22;0.50;;;0.50;;
22388;SDS011;11362;48.102;11.620;2022-12-29T03:33:49;0.60;;;0.60;;
22388;SDS011;11362;48.102;11.620;2022-12-29T03:36:23;0.67;;;0.67;;
22388;SDS011;11362;48.102;11.620;2022-12-29T03:38:57;0.63;;;0.63;;
22388;SDS011;11362;48.102;11.620;2022-12-29T03:41:28;0.43;;;0.43;;
22388;SDS011;11362;48.102;11.620;2022-12-29T03:43:56;0.50;;;0.50;;
22388;SDS011;11362;48.102;11.620;2022-12-29T03:46:21;1.70;;;0.63;;
22388;SDS011;11362;48.102;11.620;2022-12-29T03:48:46;0.50;;;0.47;;
22388;SDS011;11362;48.102;11.620;2022-12-29T03:51:12;0.60;;;0.60;;
22388;SDS011;11362;48.102;11.620;2022-12-29T03:53:37;0.57;;;0.40;;
22388;SDS011;11362;48.102;11.620;2022-12-29T03:56:02;0.50;;;0.50;;
22388;SDS011;11362;48.102;11.620;2022-12-29T03:58:28;0.50;;;0.50;;
22388;SDS011;11362;48.102;11.620;2022-12-29T04:00:53;0.70;;;0.60;;
22388;SDS011;11362;48.102;11.620;2022-12-29T04:03:18;0.50;;;0.50;;
22388;SDS011;11362;48.102;11.620;2022-12-29T04:05:43;0.40;;;0.40;;
22388;SDS011;11362;48.102;11.620;2022-12-29T04:08:09;0.50;;;0.50;;
22388;SDS011;11362;48.102;11.620;2022-12-29T04:10:34;0.40;;;0.40;;
22388;SDS011;11362;48.102;11.620;2022-12-29T04:12:59;0.50;;;0.50;;
22388;SDS011;11362;48.102;11.620;2022-12-29T04:15:25;0.60;;;0.60;;
22388;SDS011;11362;48.102;11.620;2022-12-29T04:17:50;0.87;;;0.40;;
22388;SDS011;11362;48.102;11.620;2022-12-29T04:20:15;0.30;;;0.30;;
22388;SDS011;11362;48.102;11.620;2022-12-29T04:22:40;0.60;;;0.60;;
22388;SDS011;11362;48.102;11.620;2022-12-29T04:25:06;0.50;;;0.50;;
22388;SDS011;11362;48.102;11.620;2022-12-29T04:27:32;0.60;;;0.60;;
22388;SDS011;11362;48.102;11.620;2022-12-29T04:29:57;0.43;;;0.43;;
22388;SDS011;11362;48.102;11.620;2022-12-29T04:32:22;0.47;;;0.47;;
22388;SDS011;11362;48.102;11.620;2022-12-29T04:34:47;0.57;;;0.57;;
22388;SDS011;11362;48.102;11.620;2022-12-29T04:37:13;0.40;;;0.40;;
22388;SDS011;11362;48.102;11.620;2022-12-29T04:39:38;0.50;;;0.50;;
22388;SDS011;11362;48.102;11.620;2022-12-29T04:42:03;0.40;;;0.40;;
22388;SDS011;11362;48.102;11.620;2022-12-29T04:44:29;0.60;;;0.60;;
22388;SDS011;11362;48.102;11.620;2022-12-29T04:46:54;0.40;;;0.40;;
22388;SDS011;11362;48.102;11.620;2022-12-29T04:49:19;0.50;;;0.50;;
22388;SDS011;11362;48.102;11.620;2022-12-29T04:51:44;0.40;;;0.40;;
22388;SDS011;11362;48.102;11.620;2022-12-29T04:54:10;0.30;;;0.30;;
22388;SDS011;11362;48.102;11.620;2022-12-29T04:56:35;0.43;;;0.43;;
22388;SDS011;11362;48.102;11.620;2022-12-29T04:59:00;0.50;;;0.50;;
22388;SDS011;11362;48.102;11.620;2022-12-29T05:01:25;0.70;;;0.70;;
22388;SDS011;11362;48.102;11.620;2022-12-29T05:03:51;0.40;;;0.40;;
22388;SDS011;11362;48.102;11.620;2022-12-29T05:06:16;0.60;;;0.60;;
22388;SDS011;11362;48.102;11.620;2022-12-29T05:08:41;0.67;;;0.67;;
22388;SDS011;11362;48.102;11.620;2022-12-29T05:11:07;0.60;;;0.60;;
22388;SDS011;11362;48.102;11.620;2022-12-29T05:13:32;0.50;;;0.50;;
22388;SDS011;11362;48.102;11.620;2022-12-29T05:15:57;0.30;;;0.30;;
22388;SDS011;11362;48.102;11.620;2022-12-29T05:18:22;0.40;;;0.40;;
22388;SDS011;11362;48.102;11.620;2022-12-29T05:20:48;0.50;;;0.50;;
22388;SDS011;11362;48.102;11.620;2022-12-29T05:23:13;0.50;;;0.50;;
22388;SDS011;11362;48.102;11.620;2022-12-29T05:25:39;0.63;;;0.40;;
22388;SDS011;11362;48.102;11.620;2022-12-29T05:28:04;0.70;;;0.70;;
22388;SDS011;11362;48.102;11.620;2022-12-29T05:30:29;0.40;;;0.40;;
22388;SDS011;11362;48.102;11.620;2022-12-29T05:32:55;0.30;;;0.30;;
22388;SDS011;11362;48.102;11.620;2022-12-29T05:35:20;0.30;;;0.30;;
22388;SDS011;11362;48.102;11.620;2022-12-29T05:37:45;0.50;;;0.50;;
22388;SDS011;11362;48.102;11.620;2022-12-29T05:40:10;0.37;;;0.37;;
22388;SDS011;11362;48.102;11.620;2022-12-29T05:42:36;0.23;;;0.23;;
22388;SDS011;11362;48.102;11.620;2022-12-29T05:45:01;0.40;;;0.40;;
22388;SDS011;11362;48.102;11.620;2022-12-29T05:47:27;0.57;;;0.57;;
22388;SDS011;11362;48.102;11.620;2022-12-29T05:49:52;0.60;;;0.60;;
22388;SDS011;11362;48.102;11.620;2022-12-29T05:52:18;0.50;;;0.50;;
22388;SDS011;11362;48.102;11.620;2022-12-29T05:54:43;0.40;;;0.40;;
22388;SDS011;11362;48.102;11.620;2022-12-29T05:57:08;0.30;;;0.30;;
22388;SDS011;11362;48.102;11.620;2022-12-29T05:59:34;0.30;;;0.30;;
22388;SDS011;11362;48.102;11.620;2022-12-29T06:01:59;0.50;;;0.50;;
22388;SDS011;11362;48.102;11.620;2022-12-29T06:04:25;0.47;;;0.47;;
22388;SDS011;11362;48.102;11.620;2022-12-29T06:06:50;0.50;;;0.50;;
22388;SDS011;11362;48.102;11.620;2022-12-29T06:09:15;0.50;;;0.50;;
22388;SDS011;11362;48.102;11.620;2022-12-29T06:11:41;0.20;;;0.20;;
22388;SDS011;11362;48.102;11.620;2022-12-29T06:14:06;0.47;;;0.47;;
22388;SDS011;11362;48.102;11.620;2022-12-29T06:16:31;0.43;;;0.43;;
22388;SDS011;11362;48.102;11.620;2022-12-29T06:18:56;0.47;;;0.47;;
22388;SDS011;11362;48.102;11.620;2022-12-29T06:21:22;0.37;;;0.37;;
22388;SDS011;11362;48.102;11.620;2022-12-29T06:23:47;0.50;;;0.50;;
22388;SDS011;11362;48.102;11.620;2022-12-29T06:26:12;0.40;;;0.40;;
22388;SDS011;11362;48.102;11.620;2022-12-29T06:28:37;0.50;;;0.50;;
22388;SDS011;11362;48.102;11.620;2022-12-29T06:31:03;0.40;;;0.40;;
22388;SDS011;11362;48.102;11.620;2022-12-29T06:33:29;0.50;;;0.40;;
22388;SDS011;11362;48.102;11.620;2022-12-29T06:35:54;1.23;;;0.80;;
22388;SDS011;11362;48.102;11.620;2022-12-29T06:38:19;3.87;;;0.77;;
22388;SDS011;11362;48.102;11.620;2022-12-29T06:40:45;4.50;;;0.80;;
22388;SDS011;11362;48.102;11.620;2022-12-29T06:43:10;4.00;;;0.83;;
22388;SDS011;11362;48.102;11.620;2022-12-29T06:45:37;3.60;;;1.13;;
22388;SDS011;11362;48.102;11.620;2022-12-29T06:48:03;3.57;;;0.90;;
22388;SDS011;11362;48.102;11.620;2022-12-29T06:50:29;7.07;;;1.37;;
22388;SDS011;11362;48.102;11.620;2022-12-29T06:52:54;5.90;;;1.50;;
22388;SDS011;11362;48.102;11.620;2022-12-29T06:55:19;4.30;;;1.00;;
22388;SDS011;11362;48.102;11.620;2022-12-29T06:57:45;8.20;;;1.33;;
22388;SDS011;11362;48.102;11.620;2022-12-29T07:00:10;2.27;;;1.10;;
22388;SDS011;11362;48.102;11.620;2022-12-29T07:02:36;7.63;;;2.00;;
22388;SDS011;11362;48.102;11.620;2022-12-29T07:05:01;2.30;;;0.97;;
22388;SDS011;11362;48.102;11.620;2022-12-29T07:07:26;4.17;;;1.17;;
22388;SDS011;11362;48.102;11.620;2022-12-29T07:09:51;3.60;;;1.13;;
22388;SDS011;11362;48.102;11.620;2022-12-29T07:12:17;14.10;;;1.67;;
22388;SDS011;11362;48.102;11.620;2022-12-29T07:14:42;7.90;;;1.80;;
22388;SDS011;11362;48.102;11.620;2022-12-29T07:17:07;10.73;;;1.93;;
22388;SDS011;11362;48.102;11.620;2022-12-29T07:19:33;4.70;;;1.50;;
22388;SDS011;11362;48.102;11.620;2022-12-29T07:21:58;8.27;;;1.80;;
22388;SDS011;11362;48.102;11.620;2022-12-29T07:24:24;10.70;;;2.07;;
22388;SDS011;11362;48.102;11.620;2022-12-29T07:26:49;11.37;;;2.63;;
22388;SDS011;11362;48.102;11.620;2022-12-29T07:29:14;12.73;;;2.00;;
22388;SDS011;11362;48.102;11.620;2022-12-29T07:31:40;9.27;;;1.90;;
22388;SDS011;11362;48.102;11.620;2022-12-29T07:34:05;11.23;;;2.90;;
22388;SDS011;11362;48.102;11.620;2022-12-29T07:36:30;15.47;;;2.13;;
22388;SDS011;11362;48.102;11.620;2022-12-29T07:38:56;15.60;;;3.00;;
22388;SDS011;11362;48.102;11.620;2022-12-29T07:41:21;12.50;;;1.97;;
22388;SDS011;11362;48.102;11.620;2022-12-29T07:43:47;8.60;;;1.90;;
22388;SDS011;11362;48.102;11.620;2022-12-29T07:46:12;9.50;;;1.90;;
22388;SDS011;11362;48.102;11.620;2022-12-29T07:48:38;12.30;;;2.27;;
22388;SDS011;11362;48.102;11.620;2022-12-29T07:51:03;12.93;;;2.57;;
22388;SDS011;11362;48.102;11.620;2022-12-29T07:53:28;12.10;;;2.10;;
22388;SDS011;11362;48.102;11.620;2022-12-29T07:55:54;16.90;;;2.23;;
22388;SDS011;11362;48.102;11.620;2022-12-29T07:58:19;9.33;;;1.77;;
22388;SDS011;11362;48.102;11.620;2022-12-29T08:00:44;21.00;;;2.57;;
22388;SDS011;11362;48.102;11.620;2022-12-29T08:03:10;11.83;;;2.23;;
22388;SDS011;11362;48.102;11.620;2022-12-29T08:05:35;21.40;;;2.23;;
22388;SDS011;11362;48.102;11.620;2022-12-29T08:08:00;13.90;;;2.50;;
22388;SDS011;11362;48.102;11.620;2022-12-29T08:10:26;22.90;;;3.00;;
22388;SDS011;11362;48.102;11.620;2022-12-29T08:12:51;26.73;;;3.30;;
22388;SDS011;11362;48.102;11.620;2022-12-29T08:15:16;16.87;;;2.60;;
22388;SDS011;11362;48.102;11.620;2022-12-29T08:17:42;21.50;;;3.10;;
22388;SDS011;11362;48.102;11.620;2022-12-29T08:20:07;28.33;;;4.03;;
22388;SDS011;11362;48.102;11.620;2022-12-29T08:22:33;13.77;;;2.63;;
22388;SDS011;11362;48.102;11.620;2022-12-29T08:24:58;12.27;;;2.40;;
22388;SDS011;11362;48.102;11.620;2022-12-29T08:27:23;20.53;;;3.30;;
22388;SDS011;11362;48.102;11.620;2022-12-29T08:29:50;14.07;;;3.10;;
22388;SDS011;11362;48.102;11.620;2022-12-29T08:32:15;11.87;;;2.83;;
22388;SDS011;11362;48.102;11.620;2022-12-29T08:34:40;23.20;;;3.03;;
22388;SDS011;11362;48.102;11.620;2022-12-29T08:37:06;14.43;;;3.03;;
22388;SDS011;11362;48.102;11.620;2022-12-29T08:39:31;9.73;;;2.47;;
22388;SDS011;11362;48.102;11.620;2022-12-29T08:41:56;18.20;;;3.20;;
22388;SDS011;11362;48.102;11.620;2022-12-29T08:44:22;22.07;;;3.87;;
22388;SDS011;11362;48.102;11.620;2022-12-29T08:46:47;19.20;;;4.67;;
22388;SDS011;11362;48.102;11.620;2022-12-29T08:49:13;18.17;;;3.23;;
22388;SDS011;11362;48.102;11.620;2022-12-29T08:51:38;18.87;;;2.73;;
22388;SDS011;11362;48.102;11.620;2022-12-29T08:54:04;13.60;;;2.50;;
22388;SDS011;11362;48.102;11.620;2022-12-29T08:56:29;13.63;;;2.27;;
22388;SDS011;11362;48.102;11.620;2022-12-29T08:58:55;13.20;;;2.20;;
22388;SDS011;11362;48.102;11.620;2022-12-29T09:01:20;13.30;;;1.80;;
22388;SDS011;11362;48.102;11.620;2022-12-29T09:03:46;10.63;;;2.00;;
22388;SDS011;11362;48.102;11.620;2022-12-29T09:06:12;16.80;;;2.03;;
22388;SDS011;11362;48.102;11.620;2022-12-29T09:08:38;10.83;;;2.03;;
22388;SDS011;11362;48.102;11.620;2022-12-29T09:11:10;11.03;;;2.47;;
22388;SDS011;11362;48.102;11.620;2022-12-29T09:13:38;9.87;;;2.40;;
22388;SDS011;11362;48.102;11.620;2022-12-29T09:16:04;15.40;;;2.77;;
22388;SDS011;11362;48.102;11.620;2022-12-29T09:18:30;16.60;;;3.47;;
22388;SDS011;11362;48.102;11.620;2022-12-29T09:21:00;16.40;;;2.47;;
22388;SDS011;11362;48.102;11.620;2022-12-29T09:23:26;21.87;;;2.60;;
22388;SDS011;11362;48.102;11.620;2022-12-29T09:25:52;13.80;;;2.17;;
22388;SDS011;11362;48.102;11.620;2022-12-29T09:28:18;14.77;;;3.00;;
22388;SDS011;11362;48.102;11.620;2022-12-29T09:30:43;10.63;;;2.00;;
22388;SDS011;11362;48.102;11.620;2022-12-29T09:33:08;10.43;;;2.30;;
22388;SDS011;11362;48.102;11.620;2022-12-29T09:35:34;8.40;;;2.47;;
22388;SDS011;11362;48.102;11.620;2022-12-29T09:37:59;12.10;;;1.90;;
22388;SDS011;11362;48.102;11.620;2022-12-29T09:40:26;14.07;;;3.43;;
22388;SDS011;11362;48.102;11.620;2022-12-29T09:45:42;7.73;;;2.13;;
22388;SDS011;11362;48.102;11.620;2022-12-29T09:48:23;7.60;;;2.47;;
22388;SDS011;11362;48.102;11.620;2022-12-29T09:50:53;10.57;;;1.80;;
22388;SDS011;11362;48.102;11.620;2022-12-29T09:53:35;6.70;;;1.83;;
22388;SDS011;11362;48.102;11.620;2022-12-29T09:56:03;10.07;;;2.00;;
22388;SDS011;11362;48.102;11.620;2022-12-29T09:58:33;7.80;;;2.13;;
22388;SDS011;11362;48.102;11.620;2022-12-29T10:01:22;5.77;;;2.00;;
22388;SDS011;11362;48.102;11.620;2022-12-29T10:03:57;6.93;;;1.70;;
22388;SDS011;11362;48.102;11.620;2022-12-29T10:06:25;4.60;;;1.53;;
22388;SDS011;11362;48.102;11.620;2022-12-29T10:14:15;6.33;;;1.60;;
22388;SDS011;11362;48.102;11.620;2022-12-29T10:17:00;9.47;;;1.97;;
22388;SDS011;11362;48.102;11.620;2022-12-29T10:25:12;6.37;;;1.90;;
22388;SDS011;11362;48.102;11.620;2022-12-29T10:27:42;15.10;;;2.13;;
22388;SDS011;11362;48.102;11.620;2022-12-29T10:30:11;5.73;;;1.97;;
22388;SDS011;11362;48.102;11.620;2022-12-29T10:32:39;15.17;;;1.60;;
22388;SDS011;11362;48.102;11.620;2022-12-29T10:40:59;14.23;;;2.30;;
22388;SDS011;11362;48.102;11.620;2022-12-29T10:43:32;14.50;;;2.87;;
22388;SDS011;11362;48.102;11.620;2022-12-29T10:46:08;17.03;;;2.47;;
22388;SDS011;11362;48.102;11.620;2022-12-29T10:48:37;19.83;;;2.97;;
22388;SDS011;11362;48.102;11.620;2022-12-29T10:51:04;11.40;;;2.57;;
22388;SDS011;11362;48.102;11.620;2022-12-29T10:53:40;17.13;;;2.20;;
22388;SDS011;11362;48.102;11.620;2022-12-29T10:59:19;13.73;;;2.30;;
22388;SDS011;11362;48.102;11.620;2022-12-29T11:04:35;15.93;;;2.93;;
22388;SDS011;11362;48.102;11.620;2022-12-29T11:07:18;8.77;;;1.97;;
22388;SDS011;11362;48.102;11.620;2022-12-29T11:09:45;13.07;;;1.77;;
22388;SDS011;11362;48.102;11.620;2022-12-29T11:12:27;11.60;;;1.90;;
22388;SDS011;11362;48.102;11.620;2022-12-29T11:15:01;9.47;;;2.03;;
22388;SDS011;11362;48.102;11.620;2022-12-29T11:17:37;11.53;;;2.13;;
22388;SDS011;11362;48.102;11.620;2022-12-29T11:20:19;8.27;;;1.70;;
22388;SDS011;11362;48.102;11.620;2022-12-29T11:22:52;7.33;;;2.20;;
22388;SDS011;11362;48.102;11.620;2022-12-29T11:25:17;6.47;;;1.43;;
22388;SDS011;11362;48.102;11.620;2022-12-29T11:27:51;12.63;;;2.10;;
22388;SDS011;11362;48.102;11.620;2022-12-29T11:30:24;8.40;;;1.90;;
22388;SDS011;11362;48.102;11.620;2022-12-29T11:32:52;3.60;;;1.40;;
22388;SDS011;11362;48.102;11.620;2022-12-29T11:35:33;3.80;;;1.27;;
22388;SDS011;11362;48.102;11.620;2022-12-29T11:38:04;7.37;;;1.90;;
22388;SDS011;11362;48.102;11.620;2022-12-29T11:40:30;2.50;;;1.50;;
22388;SDS011;11362;48.102;11.620;2022-12-29T11:42:58;7.13;;;1.43;;
22388;SDS011;11362;48.102;11.620;2022-12-29T11:45:25;5.23;;;1.93;;
22388;SDS011;11362;48.102;11.620;2022-12-29T11:47:57;5.30;;;1.50;;
22388;SDS011;11362;48.102;11.620;2022-12-29T11:50:27;3.27;;;1.50;;
22388;SDS011;11362;48.102;11.620;2022-12-29T11:53:00;3.37;;;1.03;;
22388;SDS011;11362;48.102;11.620;2022-12-29T11:55:27;3.10;;;1.20;;
22388;SDS011;11362;48.102;11.620;2022-12-29T11:57:54;3.97;;;1.50;;
22388;SDS011;11362;48.102;11.620;2022-12-29T12:00:22;2.67;;;1.23;;
22388;SDS011;11362;48.102;11.620;2022-12-29T12:05:44;3.63;;;1.10;;
22388;SDS011;11362;48.102;11.620;2022-12-29T12:08:15;4.63;;;1.33;;
22388;SDS011;11362;48.102;11.620;2022-12-29T12:11:12;3.93;;;1.13;;
22388;SDS011;11362;48.102;11.620;2022-12-29T12:16:28;3.43;;;1.00;;
22388;SDS011;11362;48.102;11.620;2022-12-29T12:21:41;3.70;;;1.30;;
22388;SDS011;11362;48.102;11.620;2022-12-29T12:26:53;1.20;;;1.10;;
22388;SDS011;11362;48.102;11.620;2022-12-29T12:29:28;2.43;;;1.43;;
22388;SDS011;11362;48.102;11.620;2022-12-29T12:34:44;1.60;;;0.90;;
22388;SDS011;11362;48.102;11.620;2022-12-29T12:37:16;1.90;;;0.93;;
22388;SDS011;11362;48.102;11.620;2022-12-29T12:48:36;2.97;;;1.13;;
22388;SDS011;11362;48.102;11.620;2022-12-29T12:54:18;5.53;;;1.33;;
22388;SDS011;11362;48.102;11.620;2022-12-29T13:00:04;4.97;;;1.20;;
22388;SDS011;11362;48.102;11.620;2022-12-29T13:02:48;4.50;;;1.87;;
22388;SDS011;11362;48.102;11.620;2022-12-29T13:08:01;4.47;;;1.20;;
22388;SDS011;11362;48.102;11.620;2022-12-29T13:10:45;6.93;;;1.47;;
22388;SDS011;11362;48.102;11.620;2022-12-29T13:16:06;7.53;;;1.80;;
22388;SDS011;11362;48.102;11.620;2022-12-29T13:21:17;3.80;;;1.20;;
22388;SDS011;11362;48.102;11.620;2022-12-29T13:23:58;6.47;;;1.37;;
22388;SDS011;11362;48.102;11.620;2022-12-29T13:29:26;7.07;;;1.10;;
22388;SDS011;11362;48.102;11.620;2022-12-29T13:32:00;3.83;;;1.07;;
22388;SDS011;11362;48.102;11.620;2022-12-29T13:37:32;5.60;;;1.30;;
22388;SDS011;11362;48.102;11.620;2022-12-29T13:40:15;6.03;;;1.63;;
22388;SDS011;11362;48.102;11.620;2022-12-29T13:42:43;1.43;;;1.13;;
22388;SDS011;11362;48.102;11.620;2022-12-29T13:45:12;3.13;;;1.30;;
22388;SDS011;11362;48.102;11.620;2022-12-29T13:50:35;1.93;;;1.30;;
22388;SDS011;11362;48.102;11.620;2022-12-29T13:55:49;2.83;;;1.20;;
22388;SDS011;11362;48.102;11.620;2022-12-29T13:58:26;3.93;;;1.13;;
22388;SDS011;11362;48.102;11.620;2022-12-29T14:01:00;3.00;;;0.90;;
22388;SDS011;11362;48.102;11.620;2022-12-29T14:03:43;4.53;;;1.10;;
22388;SDS011;11362;48.102;11.620;2022-12-29T14:08:40;4.10;;;1.30;;
22388;SDS011;11362;48.102;11.620;2022-12-29T14:11:07;3.67;;;1.40;;
22388;SDS011;11362;48.102;11.620;2022-12-29T14:13:36;1.90;;;1.10;;
22388;SDS011;11362;48.102;11.620;2022-12-29T14:16:03;0.90;;;0.90;;
22388;SDS011;11362;48.102;11.620;2022-12-29T14:18:30;2.20;;;0.83;;
22388;SDS011;11362;48.102;11.620;2022-12-29T14:21:07;2.17;;;0.90;;
22388;SDS011;11362;48.102;11.620;2022-12-29T14:28:31;1.37;;;1.00;;
22388;SDS011;11362;48.102;11.620;2022-12-29T14:30:59;4.20;;;1.40;;
22388;SDS011;11362;48.102;11.620;2022-12-29T14:33:27;1.97;;;0.83;;
22388;SDS011;11362;48.102;11.620;2022-12-29T14:35:54;2.13;;;1.00;;
22388;SDS011;11362;48.102;11.620;2022-12-29T14:38:24;2.07;;;1.10;;
22388;SDS011;11362;48.102;11.620;2022-12-29T14:40:51;1.57;;;1.10;;
22388;SDS011;11362;48.102;11.620;2022-12-29T14:43:26;1.80;;;1.70;;
22388;SDS011;11362;48.102;11.620;2022-12-29T14:45:54;1.63;;;1.07;;
22388;SDS011;11362;48.102;11.620;2022-12-29T14:48:30;1.80;;;0.97;;
22388;SDS011;11362;48.102;11.620;2022-12-29T14:51:02;4.03;;;1.33;;
22388;SDS011;11362;48.102;11.620;2022-12-29T14:56:08;4.23;;;0.73;;
22388;SDS011;11362;48.102;11.620;2022-12-29T15:04:21;1.27;;;0.90;;
22388;SDS011;11362;48.102;11.620;2022-12-29T15:06:50;1.00;;;0.80;;
22388;SDS011;11362;48.102;11.620;2022-12-29T15:12:04;2.03;;;0.97;;
22388;SDS011;11362;48.102;11.620;2022-12-29T15:14:47;1.90;;;0.97;;
22388;SDS011;11362;48.102;11.620;2022-12-29T15:17:33;0.60;;;0.60;;
22388;SDS011;11362;48.102;11.620;2022-12-29T15:20:00;0.90;;;0.80;;
22388;SDS011;11362;48.102;11.620;2022-12-29T15:22:42;2.10;;;0.90;;
22388;SDS011;11362;48.102;11.620;2022-12-29T15:25:12;1.50;;;1.00;;
22388;SDS011;11362;48.102;11.620;2022-12-29T15:27:41;2.27;;;1.17;;
22388;SDS011;11362;48.102;11.620;2022-12-29T15:30:11;1.57;;;0.83;;
22388;SDS011;11362;48.102;11.620;2022-12-29T15:32:40;1.43;;;1.00;;
22388;SDS011;11362;48.102;11.620;2022-12-29T15:37:51;1.07;;;0.97;;
22388;SDS011;11362;48.102;11.620;2022-12-29T15:40:24;0.60;;;0.60;;
22388;SDS011;11362;48.102;11.620;2022-12-29T15:45:24;0.90;;;0.90;;
22388;SDS011;11362;48.102;11.620;2022-12-29T15:47:55;1.37;;;1.10;;
22388;SDS011;11362;48.102;11.620;2022-12-29T15:52:52;0.87;;;0.70;;
22388;SDS011;11362;48.102;11.620;2022-12-29T15:55:18;0.83;;;0.83;;
22388;SDS011;11362;48.102;11.620;2022-12-29T15:57:46;1.17;;;1.10;;
22388;SDS011;11362;48.102;11.620;2022-12-29T16:00:21;1.30;;;0.80;;
22388;SDS011;11362;48.102;11.620;2022-12-29T16:02:54;1.27;;;0.93;;
22388;SDS011;11362;48.102;11.620;2022-12-29T16:05:21;1.47;;;0.70;;
22388;SDS011;11362;48.102;11.620;2022-12-29T16:10:26;0.83;;;0.83;;
22388;SDS011;11362;48.102;11.620;2022-12-29T16:15:52;1.40;;;0.90;;
22388;SDS011;11362;48.102;11.620;2022-12-29T16:18:24;0.90;;;0.90;;
22388;SDS011;11362;48.102;11.620;2022-12-29T16:20:53;0.80;;;0.80;;
22388;SDS011;11362;48.102;11.620;2022-12-29T16:23:23;0.90;;;0.90;;
22388;SDS011;11362;48.102;11.620;2022-12-29T16:25:51;1.07;;;0.97;;
22388;SDS011;11362;48.102;11.620;2022-12-29T16:28:18;1.70;;;0.97;;
22388;SDS011;11362;48.102;11.620;2022-12-29T16:30:47;0.63;;;0.63;;
22388;SDS011;11362;48.102;11.620;2022-12-29T16:33:30;0.80;;;0.80;;
22388;SDS011;11362;48.102;11.620;2022-12-29T16:36:01;1.20;;;0.83;;
22388;SDS011;11362;48.102;11.620;2022-12-29T16:38:30;0.97;;;0.90;;
22388;SDS011;11362;48.102;11.620;2022-12-29T16:41:00;1.00;;;0.87;;
22388;SDS011;11362;48.102;11.620;2022-12-29T16:43:27;1.33;;;0.97;;
22388;SDS011;11362;48.102;11.620;2022-12-29T16:48:18;0.73;;;0.73;;
22388;SDS011;11362;48.102;11.620;2022-12-29T16:50:46;2.00;;;0.80;;
22388;SDS011;11362;48.102;11.620;2022-12-29T16:56:03;1.40;;;1.00;;
22388;SDS011;11362;48.102;11.620;2022-12-29T16:58:33;0.77;;;0.60;;
22388;SDS011;11362;48.102;11.620;2022-12-29T17:00:59;0.97;;;0.97;;